sensor_id;sensor_type;location;lat;lon;timestamp;pressure;altitude;pressure_sealevel;temperature;humidity
56006;BME280;41888;44.696;10.522;2023-04-08T00:00:13;100533.22;;;8.23;100.00
56006;BME280;41888;44.696;10.522;2023-04-08T00:02:40;100540.78;;;8.26;100.00
56006;BME280;41888;44.696;10.522;2023-04-08T00:05:07;100543.81;;;8.23;100.00
56006;BME280;41888;44.696;10.522;2023-04-08T00:07:33;100546.81;;;8.20;100.00
56006;BME280;41888;44.696;10.522;2023-04-08T00:10:00;100549.47;;;8.20;100.00
56006;BME280;41888;44.696;10.522;2023-04-08T00:12:26;100549.66;;;8.18;100.00
56006;BME280;41888;44.696;10.522;2023-04-08T00:14:52;100546.56;;;8.15;100.00
56006;BME280;41888;44.696;10.522;2023-04-08T00:17:18;100539.72;;;8.05;100.00
56006;BME280;41888;44.696;10.522;2023-04-08T00:19:45;100544.59;;;8.02;100.00
56006;BME280;41888;44.696;10.522;2023-04-08T00:22:11;100547.59;;;8.14;100.00
56006;BME280;41888;44.696;10.522;2023-04-08T00:24:37;100549.31;;;8.06;100.00
56006;BME280;41888;44.696;10.522;2023-04-08T00:27:05;100549.66;;;8.18;100.00
56006;BME280;41888;44.696;10.522;2023-04-08T00:29:31;100544.28;;;8.12;100.00
56006;BME280;41888;44.696;10.522;2023-04-08T00:31:57;100544.38;;;8.18;100.00
56006;BME280;41888;44.696;10.522;2023-04-08T00:34:23;100546.28;;;8.10;100.00
56006;BME280;41888;44.696;10.522;2023-04-08T00:36:50;100539.69;;;8.20;100.00
56006;BME280;41888;44.696;10.522;2023-04-08T00:39:16;100542.53;;;8.19;100.00
56006;BME280;41888;44.696;10.522;2023-04-08T00:41:43;100546.47;;;8.23;100.00
56006;BME280;41888;44.696;10.522;2023-04-08T00:44:09;100543.53;;;8.32;100.00
56006;BME280;41888;44.696;10.522;2023-04-08T00:46:37;100544.25;;;8.26;100.00
56006;BME280;41888;44.696;10.522;2023-04-08T00:49:05;100548.00;;;8.32;100.00
56006;BME280;41888;44.696;10.522;2023-04-08T00:51:32;100541.81;;;8.25;100.00
56006;BME280;41888;44.696;10.522;2023-04-08T00:54:01;100537.41;;;8.32;100.00
56006;BME280;41888;44.696;10.522;2023-04-08T00:56:30;100539.19;;;8.46;100.00
56006;BME280;41888;44.696;10.522;2023-04-08T00:58:59;100540.88;;;8.32;100.00
56006;BME280;41888;44.696;10.522;2023-04-08T01:01:54;100547.72;;;8.27;100.00
56006;BME280;41888;44.696;10.522;2023-04-08T01:07:46;100558.88;;;8.22;100.00
56006;BME280;41888;44.696;10.522;2023-04-08T01:10:19;100551.31;;;8.34;100.00
56006;BME280;41888;44.696;10.522;2023-04-08T01:13:04;100539.13;;;8.39;100.00
56006;BME280;41888;44.696;10.522;2023-04-08T01:15:35;100549.28;;;8.36;100.00
56006;BME280;41888;44.696;10.522;2023-04-08T01:18:06;100549.78;;;8.46;100.00
56006;BME280;41888;44.696;10.522;2023-04-08T01:20:33;100548.84;;;8.32;100.00
56006;BME280;41888;44.696;10.522;2023-04-08T01:25:32;100542.63;;;8.40;100.00
56006;BME280;41888;44.696;10.522;2023-04-08T01:28:06;100545.53;;;8.30;100.00
56006;BME280;41888;44.696;10.522;2023-04-08T01:30:34;100537.84;;;8.35;100.00
56006;BME280;41888;44.696;10.522;2023-04-08T01:33:03;100542.34;;;8.35;100.00
56006;BME280;41888;44.696;10.522;2023-04-08T01:35:30;100536.78;;;8.30;100.00
56006;BME280;41888;44.696;10.522;2023-04-08T01:37:58;100545.81;;;8.35;100.00
56006;BME280;41888;44.696;10.522;2023-04-08T01:40:24;100538.88;;;8.20;100.00
56006;BME280;41888;44.696;10.522;2023-04-08T01:42:53;100546.28;;;8.10;100.00
56006;BME280;41888;44.696;10.522;2023-04-08T01:45:21;100536.47;;;8.03;100.00
56006;BME280;41888;44.696;10.522;2023-04-08T01:47:48;100535.44;;;8.04;100.00
56006;BME280;41888;44.696;10.522;2023-04-08T01:50:16;100530.78;;;8.06;100.00
56006;BME280;41888;44.696;10.522;2023-04-08T01:52:47;100532.78;;;8.04;100.00
56006;BME280;41888;44.696;10.522;2023-04-08T01:55:15;100527.94;;;8.08;100.00
56006;BME280;41888;44.696;10.522;2023-04-08T01:57:45;100533.44;;;8.06;100.00
56006;BME280;41888;44.696;10.522;2023-04-08T02:00:13;100525.75;;;8.12;100.00
56006;BME280;41888;44.696;10.522;2023-04-08T02:02:42;100534.22;;;8.22;100.00
56006;BME280;41888;44.696;10.522;2023-04-08T02:05:09;100535.22;;;8.21;100.00
56006;BME280;41888;44.696;10.522;2023-04-08T02:07:35;100530.56;;;8.23;100.00
56006;BME280;41888;44.696;10.522;2023-04-08T02:10:01;100528.09;;;8.21;100.00
56006;BME280;41888;44.696;10.522;2023-04-08T02:12:28;100520.97;;;8.22;100.00
56006;BME280;41888;44.696;10.522;2023-04-08T02:14:54;100518.94;;;8.24;100.00
56006;BME280;41888;44.696;10.522;2023-04-08T02:17:49;100525.06;;;8.24;100.00
56006;BME280;41888;44.696;10.522;2023-04-08T02:20:25;100524.25;;;8.24;100.00
56006;BME280;41888;44.696;10.522;2023-04-08T02:23:18;100530.63;;;8.29;100.00
56006;BME280;41888;44.696;10.522;2023-04-08T02:25:46;100536.84;;;8.22;100.00
56006;BME280;41888;44.696;10.522;2023-04-08T02:28:14;100531.81;;;8.27;100.00
56006;BME280;41888;44.696;10.522;2023-04-08T02:30:50;100523.69;;;8.28;100.00
56006;BME280;41888;44.696;10.522;2023-04-08T02:33:21;100529.56;;;8.24;100.00
56006;BME280;41888;44.696;10.522;2023-04-08T02:35:49;100526.66;;;8.19;100.00
56006;BME280;41888;44.696;10.522;2023-04-08T02:38:16;100524.59;;;8.21;100.00
56006;BME280;41888;44.696;10.522;2023-04-08T02:40:42;100518.47;;;8.20;100.00
56006;BME280;41888;44.696;10.522;2023-04-08T02:43:08;100527.66;;;8.18;100.00
56006;BME280;41888;44.696;10.522;2023-04-08T02:45:40;100518.88;;;8.17;100.00
56006;BME280;41888;44.696;10.522;2023-04-08T02:48:06;100518.78;;;8.11;100.00
56006;BME280;41888;44.696;10.522;2023-04-08T02:50:32;100515.53;;;8.09;100.00
56006;BME280;41888;44.696;10.522;2023-04-08T02:52:58;100506.94;;;8.06;100.00
56006;BME280;41888;44.696;10.522;2023-04-08T02:55:25;100512.22;;;8.06;100.00
56006;BME280;41888;44.696;10.522;2023-04-08T02:57:51;100511.31;;;7.99;100.00
56006;BME280;41888;44.696;10.522;2023-04-08T03:00:17;100507.31;;;8.03;100.00
56006;BME280;41888;44.696;10.522;2023-04-08T03:02:43;100507.00;;;8.13;100.00
56006;BME280;41888;44.696;10.522;2023-04-08T03:05:10;100516.44;;;8.01;100.00
56006;BME280;41888;44.696;10.522;2023-04-08T03:07:36;100518.25;;;8.00;100.00
56006;BME280;41888;44.696;10.522;2023-04-08T03:10:03;100522.91;;;7.98;100.00
56006;BME280;41888;44.696;10.522;2023-04-08T03:12:30;100504.84;;;8.02;100.00
56006;BME280;41888;44.696;10.522;2023-04-08T03:14:56;100522.28;;;7.96;100.00
56006;BME280;41888;44.696;10.522;2023-04-08T03:17:23;100515.53;;;7.94;100.00
56006;BME280;41888;44.696;10.522;2023-04-08T03:19:49;100527.94;;;7.93;100.00
56006;BME280;41888;44.696;10.522;2023-04-08T03:22:15;100530.97;;;7.90;100.00
56006;BME280;41888;44.696;10.522;2023-04-08T03:24:41;100524.22;;;7.73;100.00
56006;BME280;41888;44.696;10.522;2023-04-08T03:27:08;100535.22;;;7.70;100.00
56006;BME280;41888;44.696;10.522;2023-04-08T03:29:34;100534.38;;;7.70;100.00
56006;BME280;41888;44.696;10.522;2023-04-08T03:32:00;100538.78;;;7.77;100.00
56006;BME280;41888;44.696;10.522;2023-04-08T03:34:26;100541.88;;;7.66;100.00
56006;BME280;41888;44.696;10.522;2023-04-08T03:36:52;100540.97;;;7.59;100.00
56006;BME280;41888;44.696;10.522;2023-04-08T03:39:19;100547.44;;;7.71;100.00
56006;BME280;41888;44.696;10.522;2023-04-08T03:41:45;100556.13;;;7.65;100.00
56006;BME280;41888;44.696;10.522;2023-04-08T03:44:11;100555.47;;;7.78;100.00
56006;BME280;41888;44.696;10.522;2023-04-08T03:46:37;100553.56;;;7.86;100.00
56006;BME280;41888;44.696;10.522;2023-04-08T03:49:03;100566.88;;;7.78;100.00
56006;BME280;41888;44.696;10.522;2023-04-08T03:51:29;100563.59;;;7.76;100.00
56006;BME280;41888;44.696;10.522;2023-04-08T03:53:55;100573.91;;;7.56;100.00
56006;BME280;41888;44.696;10.522;2023-04-08T03:56:22;100578.41;;;7.56;100.00
56006;BME280;41888;44.696;10.522;2023-04-08T03:58:48;100576.47;;;7.50;100.00
56006;BME280;41888;44.696;10.522;2023-04-08T04:01:14;100582.03;;;7.55;100.00
56006;BME280;41888;44.696;10.522;2023-04-08T04:03:40;100585.69;;;7.54;100.00
56006;BME280;41888;44.696;10.522;2023-04-08T04:06:06;100574.81;;;7.49;100.00
56006;BME280;41888;44.696;10.522;2023-04-08T04:08:33;100578.19;;;7.43;100.00
56006;BME280;41888;44.696;10.522;2023-04-08T04:10:59;100582.75;;;7.49;100.00
56006;BME280;41888;44.696;10.522;2023-04-08T04:13:25;100580.03;;;7.57;100.00
56006;BME280;41888;44.696;10.522;2023-04-08T04:15:51;100583.22;;;7.52;100.00
56006;BME280;41888;44.696;10.522;2023-04-08T04:18:18;100587.63;;;7.60;100.00
56006;BME280;41888;44.696;10.522;2023-04-08T04:20:44;100584.50;;;7.56;100.00
56006;BME280;41888;44.696;10.522;2023-04-08T04:23:10;100584.88;;;7.53;100.00
56006;BME280;41888;44.696;10.522;2023-04-08T04:25:39;100575.00;;;7.47;100.00
56006;BME280;41888;44.696;10.522;2023-04-08T04:28:06;100585.97;;;7.44;100.00
56006;BME280;41888;44.696;10.522;2023-04-08T04:30:32;100586.84;;;7.51;100.00
56006;BME280;41888;44.696;10.522;2023-04-08T04:33:01;100594.81;;;7.51;100.00
56006;BME280;41888;44.696;10.522;2023-04-08T04:35:27;100589.22;;;7.46;100.00
56006;BME280;41888;44.696;10.522;2023-04-08T04:37:53;100587.78;;;7.44;100.00
56006;BME280;41888;44.696;10.522;2023-04-08T04:40:19;100589.44;;;7.45;100.00
56006;BME280;41888;44.696;10.522;2023-04-08T04:42:46;100588.22;;;7.33;100.00
56006;BME280;41888;44.696;10.522;2023-04-08T04:45:12;100587.66;;;7.22;100.00
56006;BME280;41888;44.696;10.522;2023-04-08T04:47:39;100591.28;;;7.21;100.00
56006;BME280;41888;44.696;10.522;2023-04-08T04:50:05;100593.84;;;7.30;100.00
56006;BME280;41888;44.696;10.522;2023-04-08T04:52:32;100590.88;;;7.33;100.00
56006;BME280;41888;44.696;10.522;2023-04-08T04:54:58;100598.09;;;7.39;100.00
56006;BME280;41888;44.696;10.522;2023-04-08T04:57:24;100598.91;;;7.39;100.00
56006;BME280;41888;44.696;10.522;2023-04-08T04:59:51;100600.84;;;7.45;100.00
56006;BME280;41888;44.696;10.522;2023-04-08T05:02:17;100603.56;;;7.52;100.00
56006;BME280;41888;44.696;10.522;2023-04-08T05:04:43;100609.34;;;7.55;100.00
56006;BME280;41888;44.696;10.522;2023-04-08T05:07:09;100610.78;;;7.58;100.00
56006;BME280;41888;44.696;10.522;2023-04-08T05:09:35;100619.28;;;7.68;100.00
56006;BME280;41888;44.696;10.522;2023-04-08T05:12:01;100606.97;;;7.90;100.00
56006;BME280;41888;44.696;10.522;2023-04-08T05:14:30;100620.97;;;8.13;100.00
56006;BME280;41888;44.696;10.522;2023-04-08T05:16:57;100620.53;;;8.60;100.00
56006;BME280;41888;44.696;10.522;2023-04-08T05:19:23;100617.28;;;9.01;100.00
56006;BME280;41888;44.696;10.522;2023-04-08T05:21:49;100625.16;;;8.94;100.00
56006;BME280;41888;44.696;10.522;2023-04-08T05:24:15;100625.66;;;9.25;100.00
56006;BME280;41888;44.696;10.522;2023-04-08T05:26:41;100608.22;;;9.38;100.00
56006;BME280;41888;44.696;10.522;2023-04-08T05:29:08;100616.03;;;10.08;100.00
56006;BME280;41888;44.696;10.522;2023-04-08T05:31:34;100621.00;;;10.65;100.00
56006;BME280;41888;44.696;10.522;2023-04-08T05:34:00;100612.25;;;10.91;100.00
56006;BME280;41888;44.696;10.522;2023-04-08T05:36:26;100627.84;;;11.33;100.00
56006;BME280;41888;44.696;10.522;2023-04-08T05:38:53;100621.28;;;11.42;100.00
56006;BME280;41888;44.696;10.522;2023-04-08T05:41:19;100627.03;;;11.53;100.00
56006;BME280;41888;44.696;10.522;2023-04-08T05:43:46;100618.84;;;11.67;100.00
56006;BME280;41888;44.696;10.522;2023-04-08T05:46:12;100622.03;;;12.15;100.00
56006;BME280;41888;44.696;10.522;2023-04-08T05:48:38;100627.22;;;12.55;100.00
56006;BME280;41888;44.696;10.522;2023-04-08T05:51:04;100626.31;;;12.23;100.00
56006;BME280;41888;44.696;10.522;2023-04-08T05:53:30;100634.31;;;12.74;100.00
56006;BME280;41888;44.696;10.522;2023-04-08T05:55:57;100627.94;;;13.06;100.00
56006;BME280;41888;44.696;10.522;2023-04-08T05:58:23;100630.94;;;13.23;100.00
56006;BME280;41888;44.696;10.522;2023-04-08T06:00:49;100632.06;;;14.02;94.72
56006;BME280;41888;44.696;10.522;2023-04-08T06:03:15;100637.16;;;14.76;89.37
56006;BME280;41888;44.696;10.522;2023-04-08T06:05:42;100637.44;;;14.56;89.21
56006;BME280;41888;44.696;10.522;2023-04-08T06:08:08;100646.03;;;15.06;87.43
56006;BME280;41888;44.696;10.522;2023-04-08T06:10:34;100648.06;;;15.23;86.24
56006;BME280;41888;44.696;10.522;2023-04-08T06:13:00;100650.91;;;15.09;87.03
56006;BME280;41888;44.696;10.522;2023-04-08T06:15:26;100664.59;;;14.90;86.84
56006;BME280;41888;44.696;10.522;2023-04-08T06:17:53;100651.84;;;14.73;87.82
56006;BME280;41888;44.696;10.522;2023-04-08T06:20:19;100655.81;;;15.01;87.60
56006;BME280;41888;44.696;10.522;2023-04-08T06:22:45;100654.31;;;15.81;82.99
56006;BME280;41888;44.696;10.522;2023-04-08T06:25:11;100657.09;;;16.21;81.49
56006;BME280;41888;44.696;10.522;2023-04-08T06:27:37;100659.84;;;16.50;78.18
56006;BME280;41888;44.696;10.522;2023-04-08T06:30:04;100652.59;;;15.75;80.44
56006;BME280;41888;44.696;10.522;2023-04-08T06:32:30;100654.25;;;16.91;76.75
56006;BME280;41888;44.696;10.522;2023-04-08T06:34:56;100656.25;;;15.51;82.71
56006;BME280;41888;44.696;10.522;2023-04-08T06:37:23;100653.97;;;16.76;77.28
56006;BME280;41888;44.696;10.522;2023-04-08T06:39:49;100655.47;;;17.00;75.93
56006;BME280;41888;44.696;10.522;2023-04-08T06:42:16;100660.84;;;17.00;75.90
56006;BME280;41888;44.696;10.522;2023-04-08T06:44:42;100656.34;;;17.51;72.76
56006;BME280;41888;44.696;10.522;2023-04-08T06:47:08;100654.72;;;18.22;70.13
56006;BME280;41888;44.696;10.522;2023-04-08T06:49:34;100659.75;;;18.78;66.74
56006;BME280;41888;44.696;10.522;2023-04-08T06:52:02;100658.97;;;20.05;62.01
56006;BME280;41888;44.696;10.522;2023-04-08T06:54:28;100669.28;;;20.71;57.41
56006;BME280;41888;44.696;10.522;2023-04-08T06:56:54;100672.38;;;20.32;56.79
56006;BME280;41888;44.696;10.522;2023-04-08T06:59:20;100667.28;;;20.41;56.84
56006;BME280;41888;44.696;10.522;2023-04-08T07:01:46;100670.19;;;19.87;57.36
56006;BME280;41888;44.696;10.522;2023-04-08T07:04:13;100665.56;;;18.27;63.92
56006;BME280;41888;44.696;10.522;2023-04-08T07:06:39;100667.28;;;16.99;70.57
56006;BME280;41888;44.696;10.522;2023-04-08T07:09:05;100662.59;;;16.15;76.14
56006;BME280;41888;44.696;10.522;2023-04-08T07:11:31;100669.34;;;15.71;79.01
56006;BME280;41888;44.696;10.522;2023-04-08T07:13:58;100666.69;;;15.82;79.34
56006;BME280;41888;44.696;10.522;2023-04-08T07:16:24;100671.78;;;15.49;82.45
56006;BME280;41888;44.696;10.522;2023-04-08T07:18:51;100666.38;;;14.96;86.08
56006;BME280;41888;44.696;10.522;2023-04-08T07:21:17;100674.22;;;14.79;89.54
56006;BME280;41888;44.696;10.522;2023-04-08T07:23:43;100667.59;;;14.82;89.04
56006;BME280;41888;44.696;10.522;2023-04-08T07:26:09;100675.94;;;14.73;90.76
56006;BME280;41888;44.696;10.522;2023-04-08T07:28:35;100683.03;;;14.68;90.83
56006;BME280;41888;44.696;10.522;2023-04-08T07:31:13;100679.25;;;14.87;89.36
56006;BME280;41888;44.696;10.522;2023-04-08T07:33:41;100686.44;;;14.75;90.55
56006;BME280;41888;44.696;10.522;2023-04-08T07:36:09;100683.56;;;14.88;91.67
56006;BME280;41888;44.696;10.522;2023-04-08T07:38:36;100685.38;;;14.76;91.91
56006;BME280;41888;44.696;10.522;2023-04-08T07:41:02;100686.81;;;14.60;92.49
56006;BME280;41888;44.696;10.522;2023-04-08T07:43:30;100690.69;;;14.64;92.73
56006;BME280;41888;44.696;10.522;2023-04-08T07:46:01;100684.94;;;14.61;91.26
56006;BME280;41888;44.696;10.522;2023-04-08T07:48:30;100688.53;;;14.73;92.06
56006;BME280;41888;44.696;10.522;2023-04-08T07:50:57;100685.34;;;14.64;91.04
56006;BME280;41888;44.696;10.522;2023-04-08T07:53:27;100679.88;;;14.16;93.72
56006;BME280;41888;44.696;10.522;2023-04-08T07:55:55;100682.78;;;13.72;97.00
56006;BME280;41888;44.696;10.522;2023-04-08T07:58:21;100681.19;;;14.07;97.53
56006;BME280;41888;44.696;10.522;2023-04-08T08:00:47;100678.47;;;14.32;94.10
56006;BME280;41888;44.696;10.522;2023-04-08T08:03:13;100685.28;;;14.28;92.83
56006;BME280;41888;44.696;10.522;2023-04-08T08:05:39;100682.03;;;14.26;95.01
56006;BME280;41888;44.696;10.522;2023-04-08T08:08:06;100687.69;;;14.36;96.29
56006;BME280;41888;44.696;10.522;2023-04-08T08:10:32;100691.81;;;14.57;95.77
56006;BME280;41888;44.696;10.522;2023-04-08T08:12:59;100687.69;;;14.54;91.38
56006;BME280;41888;44.696;10.522;2023-04-08T08:15:25;100691.41;;;14.35;90.23
56006;BME280;41888;44.696;10.522;2023-04-08T08:17:51;100694.81;;;14.49;88.18
56006;BME280;41888;44.696;10.522;2023-04-08T08:20:17;100681.75;;;14.16;88.92
56006;BME280;41888;44.696;10.522;2023-04-08T08:22:43;100683.34;;;13.99;89.74
56006;BME280;41888;44.696;10.522;2023-04-08T08:25:10;100690.03;;;14.51;90.10
56006;BME280;41888;44.696;10.522;2023-04-08T08:27:36;100696.41;;;14.68;88.51
56006;BME280;41888;44.696;10.522;2023-04-08T08:30:05;100690.84;;;14.99;86.60
56006;BME280;41888;44.696;10.522;2023-04-08T08:32:31;100694.53;;;15.16;84.93
56006;BME280;41888;44.696;10.522;2023-04-08T08:34:57;100691.06;;;14.98;86.02
56006;BME280;41888;44.696;10.522;2023-04-08T08:37:24;100697.47;;;14.97;86.11
56006;BME280;41888;44.696;10.522;2023-04-08T08:39:50;100696.16;;;14.88;88.80
56006;BME280;41888;44.696;10.522;2023-04-08T08:42:20;100700.34;;;14.65;85.52
56006;BME280;41888;44.696;10.522;2023-04-08T08:44:47;100694.78;;;14.97;84.76
56006;BME280;41888;44.696;10.522;2023-04-08T08:47:14;100707.69;;;15.18;82.28
56006;BME280;41888;44.696;10.522;2023-04-08T08:49:41;100704.03;;;15.01;82.50
56006;BME280;41888;44.696;10.522;2023-04-08T08:52:07;100706.38;;;15.09;83.39
56006;BME280;41888;44.696;10.522;2023-04-08T08:54:33;100704.59;;;15.33;83.67
56006;BME280;41888;44.696;10.522;2023-04-08T08:57:00;100701.16;;;15.44;81.68
56006;BME280;41888;44.696;10.522;2023-04-08T08:59:26;100690.59;;;15.84;81.16
56006;BME280;41888;44.696;10.522;2023-04-08T09:01:52;100700.41;;;15.78;79.36
56006;BME280;41888;44.696;10.522;2023-04-08T09:04:19;100705.66;;;15.32;82.62
56006;BME280;41888;44.696;10.522;2023-04-08T09:06:48;100694.34;;;15.41;79.98
56006;BME280;41888;44.696;10.522;2023-04-08T09:09:16;100696.91;;;15.36;76.12
56006;BME280;41888;44.696;10.522;2023-04-08T09:11:44;100694.88;;;15.61;76.43
56006;BME280;41888;44.696;10.522;2023-04-08T09:14:37;100694.94;;;15.32;75.95
56006;BME280;41888;44.696;10.522;2023-04-08T09:17:04;100690.44;;;15.55;76.49
56006;BME280;41888;44.696;10.522;2023-04-08T09:19:30;100693.75;;;15.69;75.91
56006;BME280;41888;44.696;10.522;2023-04-08T09:22:09;100687.81;;;15.90;73.65
56006;BME280;41888;44.696;10.522;2023-04-08T09:24:37;100695.38;;;16.17;72.71
56006;BME280;41888;44.696;10.522;2023-04-08T09:27:04;100689.16;;;16.39;71.25
56006;BME280;41888;44.696;10.522;2023-04-08T09:29:31;100686.63;;;16.21;70.56
56006;BME280;41888;44.696;10.522;2023-04-08T09:32:00;100687.50;;;16.50;69.79
56006;BME280;41888;44.696;10.522;2023-04-08T09:34:27;100679.44;;;16.62;69.15
56006;BME280;41888;44.696;10.522;2023-04-08T09:36:55;100681.56;;;16.48;69.26
56006;BME280;41888;44.696;10.522;2023-04-08T09:39:21;100679.59;;;16.32;67.81
56006;BME280;41888;44.696;10.522;2023-04-08T09:41:49;100684.16;;;16.31;68.54
56006;BME280;41888;44.696;10.522;2023-04-08T09:44:17;100681.47;;;16.31;69.72
56006;BME280;41888;44.696;10.522;2023-04-08T09:49:26;100684.81;;;15.45;70.77
56006;BME280;41888;44.696;10.522;2023-04-08T09:52:13;100682.56;;;15.95;70.77
56006;BME280;41888;44.696;10.522;2023-04-08T09:54:54;100676.47;;;15.65;66.46
56006;BME280;41888;44.696;10.522;2023-04-08T09:57:30;100680.34;;;15.39;71.50
56006;BME280;41888;44.696;10.522;2023-04-08T10:00:18;100681.50;;;16.08;70.46
56006;BME280;41888;44.696;10.522;2023-04-08T10:02:53;100681.78;;;16.46;68.40
56006;BME280;41888;44.696;10.522;2023-04-08T10:05:21;100680.63;;;16.54;66.41
56006;BME280;41888;44.696;10.522;2023-04-08T10:07:50;100679.72;;;16.25;67.54
56006;BME280;41888;44.696;10.522;2023-04-08T10:10:17;100676.00;;;16.26;66.58
56006;BME280;41888;44.696;10.522;2023-04-08T10:12:44;100662.66;;;16.83;65.68
56006;BME280;41888;44.696;10.522;2023-04-08T10:15:26;100673.88;;;16.92;61.70
56006;BME280;41888;44.696;10.522;2023-04-08T10:20:46;100671.41;;;16.90;63.49
56006;BME280;41888;44.696;10.522;2023-04-08T10:23:17;100675.38;;;17.16;63.43
56006;BME280;41888;44.696;10.522;2023-04-08T10:25:46;100670.72;;;17.11;61.67
56006;BME280;41888;44.696;10.522;2023-04-08T10:30:47;100670.41;;;17.08;59.12
56006;BME280;41888;44.696;10.522;2023-04-08T10:36:00;100666.72;;;16.97;60.67
56006;BME280;41888;44.696;10.522;2023-04-08T10:38:39;100661.63;;;17.46;58.99
56006;BME280;41888;44.696;10.522;2023-04-08T10:41:10;100651.75;;;17.35;56.65
56006;BME280;41888;44.696;10.522;2023-04-08T10:43:46;100657.69;;;17.65;54.86
56006;BME280;41888;44.696;10.522;2023-04-08T10:46:13;100657.47;;;17.38;52.92
56006;BME280;41888;44.696;10.522;2023-04-08T10:48:39;100662.28;;;17.53;53.60
56006;BME280;41888;44.696;10.522;2023-04-08T10:51:05;100663.69;;;17.39;55.89
56006;BME280;41888;44.696;10.522;2023-04-08T10:53:36;100653.56;;;17.46;58.09
56006;BME280;41888;44.696;10.522;2023-04-08T10:56:13;100660.28;;;17.60;57.54
56006;BME280;41888;44.696;10.522;2023-04-08T10:58:53;100649.34;;;17.66;55.94
56006;BME280;41888;44.696;10.522;2023-04-08T11:01:24;100658.03;;;18.07;56.01
56006;BME280;41888;44.696;10.522;2023-04-08T11:03:50;100654.38;;;17.96;53.33
56006;BME280;41888;44.696;10.522;2023-04-08T11:06:17;100662.09;;;18.09;52.51
56006;BME280;41888;44.696;10.522;2023-04-08T11:08:43;100646.41;;;18.23;53.42
56006;BME280;41888;44.696;10.522;2023-04-08T11:11:10;100653.91;;;18.21;52.12
56006;BME280;41888;44.696;10.522;2023-04-08T11:13:42;100654.31;;;17.75;52.74
56006;BME280;41888;44.696;10.522;2023-04-08T11:16:10;100653.25;;;17.42;51.27
56006;BME280;41888;44.696;10.522;2023-04-08T11:18:40;100650.88;;;17.96;48.24
56006;BME280;41888;44.696;10.522;2023-04-08T11:21:09;100647.06;;;17.75;47.08
56006;BME280;41888;44.696;10.522;2023-04-08T11:23:36;100647.28;;;18.29;46.64
56006;BME280;41888;44.696;10.522;2023-04-08T11:26:03;100649.56;;;18.20;45.13
56006;BME280;41888;44.696;10.522;2023-04-08T11:28:30;100638.91;;;17.87;43.50
56006;BME280;41888;44.696;10.522;2023-04-08T11:30:56;100636.91;;;17.60;43.05
56006;BME280;41888;44.696;10.522;2023-04-08T11:33:26;100637.28;;;17.69;45.40
56006;BME280;41888;44.696;10.522;2023-04-08T11:35:52;100632.88;;;18.18;44.65
56006;BME280;41888;44.696;10.522;2023-04-08T11:38:22;100627.34;;;18.08;45.47
56006;BME280;41888;44.696;10.522;2023-04-08T11:40:53;100627.34;;;18.08;44.89
56006;BME280;41888;44.696;10.522;2023-04-08T11:43:20;100629.22;;;17.69;45.28
56006;BME280;41888;44.696;10.522;2023-04-08T11:45:47;100619.50;;;17.85;46.88
56006;BME280;41888;44.696;10.522;2023-04-08T11:48:15;100622.56;;;17.93;46.53
56006;BME280;41888;44.696;10.522;2023-04-08T11:50:42;100632.34;;;17.99;47.12
56006;BME280;41888;44.696;10.522;2023-04-08T11:53:19;100619.72;;;18.22;45.65
56006;BME280;41888;44.696;10.522;2023-04-08T11:55:46;100626.91;;;18.16;44.54
56006;BME280;41888;44.696;10.522;2023-04-08T11:58:13;100621.13;;;17.86;43.84
56006;BME280;41888;44.696;10.522;2023-04-08T12:00:39;100616.16;;;17.61;41.51
56006;BME280;41888;44.696;10.522;2023-04-08T12:03:06;100617.50;;;17.97;41.84
56006;BME280;41888;44.696;10.522;2023-04-08T12:05:33;100602.72;;;17.44;40.43
56006;BME280;41888;44.696;10.522;2023-04-08T12:07:59;100614.41;;;17.05;40.47
56006;BME280;41888;44.696;10.522;2023-04-08T12:10:25;100610.47;;;16.79;42.13
56006;BME280;41888;44.696;10.522;2023-04-08T12:12:52;100610.91;;;17.04;42.10
56006;BME280;41888;44.696;10.522;2023-04-08T12:15:18;100602.63;;;17.72;42.29
56006;BME280;41888;44.696;10.522;2023-04-08T12:17:44;100603.19;;;17.75;40.64
56006;BME280;41888;44.696;10.522;2023-04-08T12:20:11;100609.75;;;18.22;39.64
56006;BME280;41888;44.696;10.522;2023-04-08T12:22:37;100603.13;;;18.78;38.22
56006;BME280;41888;44.696;10.522;2023-04-08T12:25:04;100605.25;;;18.98;37.98
56006;BME280;41888;44.696;10.522;2023-04-08T12:27:31;100609.66;;;19.14;37.35
56006;BME280;41888;44.696;10.522;2023-04-08T12:30:01;100604.94;;;18.02;37.27
56006;BME280;41888;44.696;10.522;2023-04-08T12:32:28;100592.47;;;18.18;38.64
56006;BME280;41888;44.696;10.522;2023-04-08T12:34:54;100595.63;;;17.55;38.91
56006;BME280;41888;44.696;10.522;2023-04-08T12:37:21;100596.19;;;17.23;38.32
56006;BME280;41888;44.696;10.522;2023-04-08T12:39:47;100583.00;;;17.39;38.17
56006;BME280;41888;44.696;10.522;2023-04-08T12:42:13;100589.75;;;17.24;38.93
56006;BME280;41888;44.696;10.522;2023-04-08T12:44:40;100572.06;;;17.62;39.38
56006;BME280;41888;44.696;10.522;2023-04-08T12:47:06;100578.06;;;17.86;40.15
56006;BME280;41888;44.696;10.522;2023-04-08T12:49:32;100578.72;;;17.76;39.56
56006;BME280;41888;44.696;10.522;2023-04-08T12:51:58;100578.00;;;17.81;39.84
56006;BME280;41888;44.696;10.522;2023-04-08T12:54:24;100577.06;;;18.13;38.93
56006;BME280;41888;44.696;10.522;2023-04-08T12:56:51;100577.31;;;18.12;39.61
56006;BME280;41888;44.696;10.522;2023-04-08T12:59:17;100573.78;;;17.18;41.24